Time;durP1;ratioP1;P1;durP2;ratioP2;P2;SDS_P1;SDS_P2;PMS_P1;PMS_P2;Temp;Humidity;BMP_temperature;BMP_pressure;BME280_temperature;BME280_humidity;BME280_pressure;Samples;Min_cycle;Max_cycle;Signal;HPM_P1;HPM_P2
2021/09/11 00:02:14;;;;;;;53.50;36.40;;;19.30;99.90;;;;;;6154706;23;20432;-69
2021/09/11 00:04:46;;;;;;;58.53;39.97;;;19.30;99.90;;;;;;6155158;23;20397;-69
2021/09/11 00:07:13;;;;;;;69.07;45.10;;;19.20;99.90;;;;;;6154178;23;20389;-69
2021/09/11 00:09:42;;;;;;;66.50;42.10;;;19.10;99.90;;;;;;6152862;23;20389;-70
2021/09/11 00:12:10;;;;;;;67.77;44.20;;;19.10;99.90;;;;;;6154766;23;20439;-70
2021/09/11 00:14:38;;;;;;;64.57;40.90;;;19.20;99.90;;;;;;6155315;23;20397;-70
2021/09/11 00:17:05;;;;;;;79.67;46.17;;;19.20;99.90;;;;;;6154235;23;20440;-69
2021/09/11 00:19:33;;;;;;;74.33;45.87;;;19.20;99.90;;;;;;6155176;23;20408;-69
2021/09/11 00:22:00;;;;;;;69.03;41.60;;;19.10;99.90;;;;;;6154296;23;20436;-69
2021/09/11 00:24:27;;;;;;;84.00;46.93;;;19.10;99.90;;;;;;6155194;23;20392;-69
2021/09/11 00:26:56;;;;;;;84.73;50.00;;;19.10;99.90;;;;;;6154508;23;20404;-70
2021/09/11 00:29:23;;;;;;;83.40;49.13;;;19.10;99.90;;;;;;6154412;23;20397;-69
2021/09/11 00:31:51;;;;;;;80.83;46.67;;;19.10;99.90;;;;;;6154726;23;20503;-69
2021/09/11 00:34:18;;;;;;;83.47;49.03;;;19.10;99.90;;;;;;6154999;23;20728;-69
2021/09/11 00:36:46;;;;;;;79.83;46.43;;;19.10;99.90;;;;;;6154242;23;20459;-69
2021/09/11 00:39:14;;;;;;;80.23;47.23;;;19.10;99.90;;;;;;6154367;23;20431;-70
2021/09/11 00:41:41;;;;;;;91.90;49.87;;;19.10;99.90;;;;;;6154518;23;20756;-70
2021/09/11 00:44:09;;;;;;;85.90;46.60;;;19.10;99.90;;;;;;6155435;23;20409;-69
2021/09/11 00:46:37;;;;;;;66.83;42.83;;;19.10;99.90;;;;;;6154298;23;20392;-69
2021/09/11 00:49:04;;;;;;;80.17;47.17;;;19.10;99.90;;;;;;6154558;23;20500;-69
2021/09/11 00:51:32;;;;;;;82.70;48.53;;;19.10;99.90;;;;;;6154000;23;20935;-70
2021/09/11 00:54:00;;;;;;;71.37;45.37;;;19.10;99.90;;;;;;6154677;23;20701;-69
2021/09/11 00:56:31;;;;;;;82.50;45.80;;;19.20;99.90;;;;;;6153548;23;20788;-69
2021/09/11 00:59:00;;;;;;;84.17;48.90;;;19.20;99.90;;;;;;6154484;23;20385;-69
2021/09/11 01:01:29;;;;;;;86.23;49.43;;;19.10;99.90;;;;;;6154341;23;20432;-68
2021/09/11 01:03:56;;;;;;;91.87;50.70;;;19.10;99.90;;;;;;6154185;23;20400;-69
2021/09/11 01:06:25;;;;;;;99.33;49.80;;;19.10;99.90;;;;;;6154670;23;20417;-69
2021/09/11 01:08:53;;;;;;;88.93;48.97;;;19.20;99.90;;;;;;6154034;23;20403;-69
2021/09/11 01:11:20;;;;;;;79.57;46.67;;;19.20;99.90;;;;;;6152971;23;20443;-69
2021/09/11 01:13:47;;;;;;;79.37;46.73;;;19.30;99.90;;;;;;6154715;23;20388;-69
2021/09/11 01:16:14;;;;;;;96.00;49.93;;;19.30;99.90;;;;;;6154567;23;20393;-69
2021/09/11 01:18:45;;;;;;;102.57;53.97;;;19.20;99.90;;;;;;6153123;23;20435;-70
2021/09/11 01:21:12;;;;;;;116.60;53.77;;;19.10;99.90;;;;;;6153963;23;20428;-69
2021/09/11 01:23:42;;;;;;;101.30;51.47;;;19.10;99.90;;;;;;6154286;23;20397;-69
2021/09/11 01:26:09;;;;;;;109.07;52.47;;;19.20;99.90;;;;;;6154053;23;20412;-69
2021/09/11 01:28:36;;;;;;;98.10;52.17;;;19.20;99.90;;;;;;6154051;23;20396;-69
2021/09/11 01:31:05;;;;;;;91.07;49.63;;;19.20;99.90;;;;;;6154472;23;20389;-69
2021/09/11 01:33:32;;;;;;;100.80;52.60;;;19.20;99.90;;;;;;6154711;23;20389;-70
2021/09/11 01:36:00;;;;;;;82.60;48.83;;;19.10;99.90;;;;;;6155195;23;20400;-69
2021/09/11 01:38:27;;;;;;;98.97;50.27;;;19.10;99.90;;;;;;6153595;23;20448;-69
2021/09/11 01:40:55;;;;;;;95.43;52.07;;;19.10;99.90;;;;;;6154044;23;20401;-70
2021/09/11 01:43:34;;;;;;;77.60;47.70;;;19.20;99.90;;;;;;6154367;23;20393;-70
2021/09/11 01:46:02;;;;;;;72.73;44.30;;;19.20;99.90;;;;;;6154379;23;20392;-69
2021/09/11 01:48:30;;;;;;;84.23;46.60;;;19.20;99.90;;;;;;6153450;23;20393;-70
2021/09/11 01:50:57;;;;;;;89.40;49.53;;;19.30;99.90;;;;;;6154343;23;20397;-70
2021/09/11 01:53:25;;;;;;;75.60;43.93;;;19.30;99.90;;;;;;6154207;23;21161;-70
2021/09/11 01:55:52;;;;;;;80.43;46.20;;;19.30;99.90;;;;;;6154839;23;20723;-69
2021/09/11 01:58:21;;;;;;;82.33;48.20;;;19.30;99.90;;;;;;6153838;23;20428;-69
2021/09/11 02:00:48;;;;;;;84.30;48.60;;;19.30;99.90;;;;;;6154479;23;20392;-69
2021/09/11 02:03:15;;;;;;;81.97;47.40;;;19.20;99.90;;;;;;6154823;23;20397;-69
2021/09/11 02:05:42;;;;;;;79.17;47.57;;;19.30;99.90;;;;;;6154601;23;20384;-69
2021/09/11 02:08:09;;;;;;;87.77;50.27;;;19.30;99.90;;;;;;6155751;23;20396;-69
2021/09/11 02:10:37;;;;;;;85.40;48.80;;;19.30;99.90;;;;;;6156086;23;20397;-69
2021/09/11 02:13:04;;;;;;;80.07;46.80;;;19.30;99.90;;;;;;6156545;23;20920;-70
2021/09/11 02:15:33;;;;;;;82.43;46.80;;;19.30;99.90;;;;;;6157214;23;20389;-69
2021/09/11 02:18:00;;;;;;;74.80;43.80;;;19.30;99.90;;;;;;6156065;23;20464;-70
2021/09/11 02:20:27;;;;;;;82.07;46.60;;;19.30;99.90;;;;;;6157086;23;20407;-70
2021/09/11 02:22:54;;;;;;;57.83;40.47;;;19.30;99.90;;;;;;6155690;23;20515;-69
2021/09/11 02:25:21;;;;;;;79.77;47.63;;;19.30;99.90;;;;;;6156866;23;20388;-69
2021/09/11 02:27:48;;;;;;;81.40;47.10;;;19.30;99.90;;;;;;6155325;23;20399;-70
2021/09/11 02:30:15;;;;;;;74.27;45.63;;;19.30;99.90;;;;;;6156797;23;20404;-69
2021/09/11 02:32:44;;;;;;;84.50;47.30;;;19.30;99.90;;;;;;6156329;23;20432;-70
2021/09/11 02:35:12;;;;;;;81.43;43.83;;;19.30;99.90;;;;;;6155711;23;20398;-70
2021/09/11 02:37:39;;;;;;;70.50;46.37;;;19.20;99.90;;;;;;6155904;23;20736;-69
2021/09/11 02:40:07;;;;;;;78.70;48.13;;;19.20;99.90;;;;;;6155955;23;20416;-70
2021/09/11 02:42:34;;;;;;;76.20;44.20;;;19.20;99.90;;;;;;6155871;23;20919;-70
2021/09/11 02:45:01;;;;;;;75.13;44.40;;;19.20;99.90;;;;;;6156424;23;20729;-69
2021/09/11 02:47:28;;;;;;;75.20;48.63;;;19.20;99.90;;;;;;6155342;23;20426;-69
2021/09/11 02:49:57;;;;;;;65.60;42.57;;;19.20;99.90;;;;;;6156126;23;20392;-69
2021/09/11 02:52:24;;;;;;;73.27;44.03;;;19.20;99.90;;;;;;6156290;23;20432;-69
2021/09/11 02:54:51;;;;;;;74.70;46.20;;;19.30;99.90;;;;;;6156363;23;20483;-69
2021/09/11 02:57:18;;;;;;;79.47;44.53;;;19.20;99.90;;;;;;6154521;23;20392;-69
2021/09/11 02:59:52;;;;;;;65.47;43.63;;;19.30;99.90;;;;;;6156496;23;20392;-69
2021/09/11 03:02:19;;;;;;;79.43;44.70;;;19.30;99.90;;;;;;6156099;23;20428;-69
2021/09/11 03:04:46;;;;;;;68.27;44.63;;;19.20;99.90;;;;;;6157112;23;20400;-69
2021/09/11 03:07:21;;;;;;;61.23;41.77;;;19.20;99.90;;;;;;6156747;23;20844;-69
2021/09/11 03:09:48;;;;;;;68.03;44.90;;;19.20;99.90;;;;;;6157295;23;20392;-69
2021/09/11 03:12:22;;;;;;;65.97;43.50;;;19.10;99.90;;;;;;6156670;23;20443;-69
2021/09/11 03:14:49;;;;;;;73.30;44.30;;;19.20;99.90;;;;;;6156847;23;20877;-70
2021/09/11 03:17:22;;;;;;;60.37;40.50;;;19.10;99.90;;;;;;6156302;23;20875;-69
2021/09/11 03:19:50;;;;;;;71.13;41.33;;;19.10;99.90;;;;;;6156765;23;20425;-69
2021/09/11 03:22:45;;;;;;;54.87;37.43;;;19.10;99.90;;;;;;6156434;23;20428;-69
2021/09/11 03:25:14;;;;;;;60.67;41.03;;;19.00;99.90;;;;;;6157057;23;20393;-69
2021/09/11 03:27:42;;;;;;;67.87;41.30;;;19.00;99.90;;;;;;6156016;23;20431;-69
2021/09/11 03:30:10;;;;;;;59.80;40.87;;;18.90;99.90;;;;;;6155898;23;20404;-68
2021/09/11 03:32:37;;;;;;;56.13;38.60;;;18.90;99.90;;;;;;6155851;23;20413;-68
2021/09/11 03:35:06;;;;;;;58.07;37.53;;;18.90;99.90;;;;;;6156236;23;20404;-69
2021/09/11 03:37:33;;;;;;;71.00;41.67;;;19.00;99.90;;;;;;6155420;23;20423;-69
2021/09/11 03:40:00;;;;;;;62.83;40.43;;;18.90;99.90;;;;;;6155633;23;20427;-68
2021/09/11 03:42:29;;;;;;;67.40;40.47;;;18.90;99.90;;;;;;6156196;23;20435;-68
2021/09/11 03:44:56;;;;;;;71.53;40.27;;;18.90;99.90;;;;;;6155836;23;20381;-69
2021/09/11 03:47:23;;;;;;;57.47;38.93;;;18.90;99.90;;;;;;6155592;23;20726;-69
2021/09/11 03:49:50;;;;;;;62.80;38.13;;;18.90;99.90;;;;;;6156440;23;20396;-69
2021/09/11 03:52:18;;;;;;;67.77;38.87;;;18.90;99.90;;;;;;6155704;23;20432;-68
2021/09/11 03:54:45;;;;;;;60.57;39.70;;;18.80;99.90;;;;;;6156480;23;20404;-69
2021/09/11 03:57:12;;;;;;;62.77;39.30;;;18.80;99.90;;;;;;6155321;23;20397;-68
2021/09/11 03:59:41;;;;;;;65.40;39.40;;;18.90;99.90;;;;;;6156490;23;20429;-69
2021/09/11 04:02:08;;;;;;;70.47;40.37;;;18.80;99.90;;;;;;6155386;23;20435;-69
2021/09/11 04:04:35;;;;;;;53.97;36.57;;;18.80;99.90;;;;;;6156381;23;20733;-68
2021/09/11 04:07:02;;;;;;;64.97;38.20;;;18.80;99.90;;;;;;6128741;23;20411;-68
2021/09/11 04:09:29;;;;;;;74.83;38.23;;;18.80;99.90;;;;;;6155370;23;20397;-69
2021/09/11 04:11:56;;;;;;;56.53;34.63;;;18.70;99.90;;;;;;6155427;23;20431;-69
2021/09/11 04:14:24;;;;;;;61.77;37.27;;;18.70;99.90;;;;;;6154864;23;20393;-68
2021/09/11 04:16:52;;;;;;;74.63;40.80;;;18.70;99.90;;;;;;6154902;23;20418;-69
2021/09/11 04:19:20;;;;;;;64.53;37.40;;;18.70;99.90;;;;;;6155196;23;20438;-69
2021/09/11 04:21:47;;;;;;;64.63;35.83;;;18.60;99.90;;;;;;6155518;23;20462;-69
2021/09/11 04:24:15;;;;;;;47.40;32.00;;;18.60;99.90;;;;;;6155519;23;20407;-68
2021/09/11 04:26:42;;;;;;;42.27;30.20;;;18.60;99.90;;;;;;6156035;23;20717;-69
2021/09/11 04:29:09;;;;;;;60.60;34.60;;;18.60;99.90;;;;;;6154394;23;20402;-69
2021/09/11 04:31:36;;;;;;;50.93;31.73;;;18.60;99.90;;;;;;6155032;23;20436;-69
2021/09/11 04:34:05;;;;;;;50.97;31.73;;;18.60;99.90;;;;;;6155654;23;20506;-69
2021/09/11 04:36:32;;;;;;;55.23;35.27;;;18.60;99.90;;;;;;6155152;23;20408;-69
2021/09/11 04:39:00;;;;;;;50.30;34.47;;;18.60;99.90;;;;;;6154559;23;20447;-69
2021/09/11 04:41:27;;;;;;;46.83;32.20;;;18.60;99.90;;;;;;6154560;23;20488;-69
2021/09/11 04:43:54;;;;;;;47.03;31.93;;;18.60;99.90;;;;;;6155857;23;20403;-69
2021/09/11 04:46:21;;;;;;;52.60;36.47;;;18.70;99.90;;;;;;6155081;23;20404;-68
2021/09/11 04:48:54;;;;;;;54.27;34.00;;;18.70;99.90;;;;;;6154291;23;20774;-69
2021/09/11 04:51:22;;;;;;;47.50;32.67;;;18.70;99.90;;;;;;6154987;23;20920;-69
2021/09/11 04:53:50;;;;;;;50.20;32.80;;;18.70;99.90;;;;;;6155037;23;20386;-69
2021/09/11 04:56:17;;;;;;;44.90;30.00;;;18.70;99.90;;;;;;6155204;23;20472;-68
2021/09/11 04:58:45;;;;;;;47.37;31.70;;;18.80;99.90;;;;;;6154604;23;20432;-68
2021/09/11 05:01:13;;;;;;;46.20;31.30;;;18.80;99.90;;;;;;6155340;23;20444;-69
2021/09/11 05:03:40;;;;;;;36.70;27.37;;;18.90;99.90;;;;;;6155287;23;20479;-69
2021/09/11 05:06:07;;;;;;;42.77;32.87;;;18.90;99.90;;;;;;6155333;23;20492;-69
2021/09/11 05:08:35;;;;;;;48.53;33.73;;;18.90;99.90;;;;;;6154324;23;20385;-69
2021/09/11 05:11:03;;;;;;;44.90;31.43;;;18.90;99.90;;;;;;6154834;23;20440;-69
2021/09/11 05:13:30;;;;;;;50.43;33.37;;;18.90;99.90;;;;;;6155520;23;20392;-69
2021/09/11 05:15:57;;;;;;;45.17;31.70;;;18.90;99.90;;;;;;6155365;23;20400;-69
2021/09/11 05:18:24;;;;;;;38.47;27.20;;;18.90;99.90;;;;;;6154770;23;20389;-69
2021/09/11 05:20:51;;;;;;;44.77;32.00;;;18.90;99.90;;;;;;6154837;23;20404;-69
2021/09/11 05:23:18;;;;;;;45.37;34.43;;;18.90;99.90;;;;;;6155080;23;20396;-69
2021/09/11 05:25:47;;;;;;;47.37;32.50;;;18.90;99.90;;;;;;6154854;23;20402;-69
2021/09/11 05:28:14;;;;;;;129.23;91.90;;;18.80;99.90;;;;;;6154103;23;20389;-68
2021/09/11 05:30:41;;;;;;;49.33;33.33;;;18.90;99.90;;;;;;6154628;23;20696;-69
2021/09/11 05:33:08;;;;;;;46.33;30.03;;;19.00;99.90;;;;;;6154745;23;20431;-68
2021/09/11 05:35:35;;;;;;;45.93;30.97;;;18.80;99.90;;;;;;6155095;23;20397;-69
2021/09/11 05:38:02;;;;;;;52.27;34.23;;;18.80;99.90;;;;;;6153549;23;20403;-69
2021/09/11 05:40:30;;;;;;;51.60;32.97;;;18.80;99.90;;;;;;6154887;23;20392;-69
2021/09/11 05:42:58;;;;;;;50.57;32.33;;;18.90;99.90;;;;;;6154321;23;20763;-69
2021/09/11 05:45:26;;;;;;;63.30;34.30;;;18.80;99.90;;;;;;6155601;23;20392;-70
2021/09/11 05:47:53;;;;;;;59.43;36.00;;;18.80;99.90;;;;;;6153951;23;20388;-70
2021/09/11 05:50:20;;;;;;;63.20;41.07;;;18.80;99.90;;;;;;6154340;23;20435;-69
2021/09/11 05:52:47;;;;;;;63.57;36.07;;;18.70;99.90;;;;;;6154861;23;20428;-69
2021/09/11 05:55:15;;;;;;;60.37;38.73;;;18.70;99.90;;;;;;6154290;23;20484;-69
2021/09/11 05:57:43;;;;;;;72.13;43.10;;;18.60;99.90;;;;;;6154216;23;20914;-67
2021/09/11 06:00:12;;;;;;;71.43;43.73;;;18.60;99.90;;;;;;6154765;23;20802;-69
2021/09/11 06:02:40;;;;;;;70.73;41.73;;;18.50;99.90;;;;;;6154647;23;20436;-69
2021/09/11 06:05:08;;;;;;;65.23;41.87;;;18.60;99.90;;;;;;6155057;23;20444;-69
2021/09/11 06:07:37;;;;;;;77.37;47.20;;;18.60;99.90;;;;;;6153777;23;20400;-69
2021/09/11 06:10:05;;;;;;;69.73;41.90;;;18.70;99.90;;;;;;6155032;23;20431;-68
2021/09/11 06:12:32;;;;;;;72.53;41.43;;;18.70;99.90;;;;;;6153601;23;20436;-68
2021/09/11 06:14:59;;;;;;;73.63;47.40;;;18.60;99.90;;;;;;6155130;23;20401;-69
2021/09/11 06:17:28;;;;;;;72.90;45.00;;;18.60;99.90;;;;;;6153958;23;20397;-67
2021/09/11 06:19:55;;;;;;;63.80;42.10;;;18.70;99.90;;;;;;6155010;23;20722;-68
2021/09/11 06:22:22;;;;;;;63.80;38.07;;;18.70;99.90;;;;;;6153981;23;20927;-68
2021/09/11 06:24:49;;;;;;;67.30;42.97;;;18.80;99.90;;;;;;6154618;23;20397;-68
2021/09/11 06:27:18;;;;;;;64.63;41.17;;;18.80;99.90;;;;;;6154035;23;20719;-68
2021/09/11 06:29:45;;;;;;;81.73;45.27;;;18.80;99.90;;;;;;6154019;23;20914;-69
2021/09/11 06:32:12;;;;;;;75.30;46.10;;;18.80;99.90;;;;;;6154146;23;20436;-69
2021/09/11 06:34:41;;;;;;;85.53;49.63;;;18.80;99.90;;;;;;6154740;23;20392;-69
2021/09/11 06:37:08;;;;;;;89.70;47.20;;;18.80;99.90;;;;;;6153961;23;20487;-69
2021/09/11 06:39:35;;;;;;;80.90;47.43;;;18.80;99.90;;;;;;6154177;23;20431;-73
2021/09/11 06:42:03;;;;;;;93.77;51.83;;;18.80;99.90;;;;;;6154144;23;20439;-70
2021/09/11 06:44:30;;;;;;;90.27;49.27;;;18.80;99.90;;;;;;6154755;23;20398;-71
2021/09/11 06:46:57;;;;;;;78.73;44.63;;;18.80;99.90;;;;;;6154346;23;20699;-68
2021/09/11 06:49:24;;;;;;;90.00;47.83;;;18.80;99.90;;;;;;6149499;23;21469;-73
2021/09/11 06:51:53;;;;;;;93.83;45.90;;;18.80;99.90;;;;;;6142947;23;20880;-72
2021/09/11 06:54:20;;;;;;;82.50;48.00;;;18.80;99.90;;;;;;6143071;23;20889;-72
2021/09/11 06:56:47;;;;;;;90.33;48.83;;;18.90;99.90;;;;;;6151238;23;20487;-72
2021/09/11 06:59:14;;;;;;;79.17;43.90;;;18.90;99.90;;;;;;6155177;23;20812;-69
2021/09/11 07:01:41;;;;;;;74.27;42.47;;;18.90;99.90;;;;;;6154977;23;20435;-68
2021/09/11 07:04:10;;;;;;;71.47;44.00;;;19.00;99.90;;;;;;6155253;23;20402;-68
2021/09/11 07:06:37;;;;;;;77.60;45.43;;;19.10;99.90;;;;;;6155726;23;20397;-66
2021/09/11 07:09:06;;;;;;;75.10;44.90;;;19.20;99.90;;;;;;6154944;23;20755;-69
2021/09/11 07:11:33;;;;;;;70.70;43.20;;;19.30;99.90;;;;;;6154251;23;20447;-66
2021/09/11 07:14:00;;;;;;;64.70;41.30;;;19.40;99.90;;;;;;6155835;23;20400;-67
2021/09/11 07:16:28;;;;;;;68.90;42.70;;;19.60;99.90;;;;;;6156164;23;20400;-67
2021/09/11 07:18:55;;;;;;;67.60;42.70;;;19.70;99.90;;;;;;6155259;23;20449;-67
2021/09/11 07:21:22;;;;;;;61.13;40.53;;;19.80;99.90;;;;;;6153343;23;20677;-67
2021/09/11 07:23:49;;;;;;;57.83;38.23;;;19.90;99.90;;;;;;6157028;23;20399;-73
2021/09/11 07:26:19;;;;;;;59.57;42.00;;;20.20;99.90;;;;;;6157460;23;20397;-74
2021/09/11 07:28:47;;;;;;;56.70;38.80;;;20.50;99.90;;;;;;6156574;23;20473;-74
2021/09/11 07:31:14;;;;;;;52.80;36.50;;;20.80;99.90;;;;;;6156082;23;20427;-74
2021/09/11 07:33:42;;;;;;;58.47;39.10;;;21.00;99.90;;;;;;6157271;23;20396;-74
2021/09/11 07:36:11;;;;;;;58.67;40.37;;;21.10;99.90;;;;;;6157191;23;20471;-75
2021/09/11 07:38:41;;;;;;;46.87;36.83;;;21.20;99.90;;;;;;6156768;23;20925;-75
2021/09/11 07:41:09;;;;;;;48.13;35.17;;;21.20;99.90;;;;;;6156276;23;20711;-73
2021/09/11 07:46:07;;;;;;;45.73;34.30;;;21.10;99.90;;;;;;6154042;23;20408;-74
2021/09/11 07:48:34;;;;;;;41.83;32.50;;;21.00;99.90;;;;;;6155289;23;20392;-72
2021/09/11 07:51:02;;;;;;;43.70;32.33;;;21.00;99.90;;;;;;6155763;23;20436;-73
2021/09/11 07:53:31;;;;;;;40.17;32.83;;;21.00;99.90;;;;;;6155104;23;20407;-72
2021/09/11 07:55:59;;;;;;;38.50;31.20;;;21.10;99.90;;;;;;6154961;23;20437;-74
2021/09/11 07:58:27;;;;;;;37.40;30.83;;;21.00;99.90;;;;;;6155191;23;20404;-72
2021/09/11 08:00:55;;;;;;;33.40;29.90;;;21.50;99.90;;;;;;6154214;23;20395;-72
2021/09/11 08:03:25;;;;;;;37.90;27.50;;;22.00;99.90;;;;;;6156231;23;20397;-71
2021/09/11 08:05:53;;;;;;;31.67;27.70;;;22.60;99.90;;;;;;6155798;23;20397;-76
2021/09/11 08:08:24;;;;;;;31.40;27.50;;;23.10;99.90;;;;;;6155074;23;20393;-74
2021/09/11 08:10:51;;;;;;;26.37;23.20;;;23.90;99.90;;;;;;6154647;23;20445;-73
2021/09/11 08:13:19;;;;;;;23.47;20.73;;;25.20;99.90;;;;;;6153825;23;20385;-72
2021/09/11 08:15:46;;;;;;;25.60;22.73;;;26.10;99.90;;;;;;6155554;23;20393;-74
2021/09/11 08:18:14;;;;;;;20.60;18.50;;;26.50;99.90;;;;;;6155574;23;20507;-73
2021/09/11 08:20:43;;;;;;;24.70;20.83;;;27.30;99.90;;;;;;6154936;23;20400;-72
2021/09/11 08:23:11;;;;;;;23.70;21.30;;;27.60;99.90;;;;;;6155071;23;20794;-73
2021/09/11 08:25:39;;;;;;;21.60;19.30;;;28.50;99.70;;;;;;6154467;23;20499;-72
2021/09/11 08:28:10;;;;;;;22.77;20.50;;;29.10;97.60;;;;;;6153578;23;20396;-72
2021/09/11 08:30:37;;;;;;;18.77;16.83;;;29.30;96.40;;;;;;6153969;23;20520;-72
2021/09/11 08:33:05;;;;;;;19.67;17.63;;;28.90;95.50;;;;;;6155111;23;20436;-73
2021/09/11 08:35:32;;;;;;;21.57;19.43;;;28.60;95.30;;;;;;6155334;23;20393;-72
2021/09/11 08:38:01;;;;;;;21.73;19.43;;;26.40;97.80;;;;;;6154491;23;20470;-75
2021/09/11 08:40:28;;;;;;;20.83;18.60;;;25.60;99.90;;;;;;6154699;23;20389;-72
2021/09/11 08:42:55;;;;;;;20.03;17.17;;;24.60;99.90;;;;;;6154342;23;20447;-72
2021/09/11 08:45:26;;;;;;;19.00;17.07;;;24.60;99.90;;;;;;6154392;23;20456;-73
2021/09/11 08:47:53;;;;;;;20.30;17.97;;;24.20;99.90;;;;;;6153303;23;20403;-72
2021/09/11 08:50:21;;;;;;;19.93;17.77;;;23.50;99.90;;;;;;6154164;23;20744;-73
2021/09/11 08:52:50;;;;;;;17.50;15.60;;;23.20;99.90;;;;;;6153291;23;20439;-73
2021/09/11 08:55:20;;;;;;;18.97;15.37;;;23.60;99.90;;;;;;6155643;23;20404;-72
2021/09/11 08:58:01;;;;;;;18.07;14.70;;;24.40;99.90;;;;;;6153556;23;20860;-73
2021/09/11 09:00:38;;;;;;;14.90;12.20;;;23.90;99.90;;;;;;6153667;23;20481;-70
2021/09/11 09:03:30;;;;;;;11.17;10.07;;;24.50;99.90;;;;;;6153864;23;20566;-71
2021/09/11 09:06:11;;;;;;;11.80;10.60;;;25.00;99.90;;;;;;6156233;23;20397;-74
2021/09/11 09:08:38;;;;;;;11.47;10.10;;;24.80;99.90;;;;;;6154781;23;20888;-69
2021/09/11 09:11:21;;;;;;;13.37;10.63;;;24.60;99.90;;;;;;6149457;23;20439;-71
2021/09/11 09:14:07;;;;;;;10.73;9.70;;;25.00;99.90;;;;;;6155802;23;20433;-70
2021/09/11 09:16:37;;;;;;;9.50;8.30;;;25.20;99.90;;;;;;6155086;23;20577;-71
2021/09/11 09:19:15;;;;;;;12.00;9.33;;;25.10;99.90;;;;;;6154013;23;20397;-69
2021/09/11 09:21:44;;;;;;;10.73;9.63;;;24.20;99.90;;;;;;6154664;23;20435;-70
2021/09/11 09:24:14;;;;;;;11.90;10.27;;;23.70;99.90;;;;;;6154759;23;20495;-74
2021/09/11 09:26:53;;;;;;;10.47;9.17;;;23.40;99.90;;;;;;6153987;23;20407;-68
2021/09/11 09:29:21;;;;;;;11.50;10.40;;;23.20;99.90;;;;;;6153581;23;20800;-66
2021/09/11 09:31:50;;;;;;;12.37;10.50;;;22.80;99.90;;;;;;6154515;23;20424;-73
2021/09/11 09:34:32;;;;;;;22.50;10.63;;;22.60;99.90;;;;;;6154882;23;20475;-72
2021/09/11 09:37:01;;;;;;;10.30;8.60;;;22.50;99.90;;;;;;6154640;23;20700;-75
2021/09/11 09:39:29;;;;;;;10.20;8.00;;;22.40;99.90;;;;;;6153842;23;20728;-73
2021/09/11 09:42:04;;;;;;;8.67;7.57;;;22.20;99.90;;;;;;6153816;23;20456;-72
2021/09/11 09:44:42;;;;;;;13.37;8.33;;;22.30;99.90;;;;;;6154490;23;20531;-73
2021/09/11 09:47:13;;;;;;;9.33;8.43;;;22.20;99.90;;;;;;6154567;23;20666;-72
2021/09/11 09:49:40;;;;;;;8.10;6.37;;;22.00;99.90;;;;;;6153752;23;20467;-70
2021/09/11 09:52:08;;;;;;;8.30;7.50;;;21.80;99.90;;;;;;6153544;23;20457;-68
2021/09/11 09:54:36;;;;;;;9.77;7.73;;;21.50;99.90;;;;;;6154015;23;20451;-68
2021/09/11 09:57:07;;;;;;;8.20;6.90;;;21.40;99.90;;;;;;6146118;23;20455;-68
2021/09/11 09:59:36;;;;;;;9.93;8.13;;;21.30;99.90;;;;;;6151848;23;20732;-69
2021/09/11 10:02:04;;;;;;;9.90;7.80;;;21.30;99.90;;;;;;6153359;23;20435;-69
2021/09/11 10:04:35;;;;;;;6.43;5.83;;;22.10;99.90;;;;;;6154122;23;20483;-70
2021/09/11 10:07:04;;;;;;;5.83;5.33;;;23.50;99.90;;;;;;6153648;23;20406;-69
2021/09/11 10:09:32;;;;;;;5.93;5.43;;;24.40;99.90;;;;;;6153717;23;20400;-67
2021/09/11 10:11:59;;;;;;;7.13;6.53;;;25.30;99.90;;;;;;6153531;23;20490;-73
2021/09/11 10:14:35;;;;;;;5.97;5.47;;;25.50;99.90;;;;;;6152797;23;20914;-73
2021/09/11 10:17:04;;;;;;;8.50;7.47;;;25.80;99.90;;;;;;6128419;23;20815;-72
2021/09/11 10:19:36;;;;;;;7.13;5.77;;;25.90;99.70;;;;;;6153889;23;20439;-71
2021/09/11 10:22:24;;;;;;;6.83;6.33;;;26.00;99.30;;;;;;6153427;23;20515;-74
2021/09/11 10:25:01;;;;;;;7.57;6.60;;;26.30;98.90;;;;;;6154130;23;20401;-70
2021/09/11 10:27:35;;;;;;;9.30;8.37;;;26.00;98.50;;;;;;6127705;23;20483;-69
2021/09/11 10:32:44;;;;;;;7.10;6.37;;;25.30;99.90;;;;;;6089459;23;20759;-70
2021/09/11 10:35:17;;;;;;;7.93;7.00;;;25.00;99.90;;;;;;6090780;23;20414;-69
2021/09/11 10:37:45;;;;;;;13.00;7.30;;;24.70;99.90;;;;;;6095239;23;20394;-70
2021/09/11 10:40:25;;;;;;;8.80;7.33;;;24.70;99.90;;;;;;6096716;23;20395;-69
2021/09/11 10:43:14;;;;;;;8.73;7.93;;;24.60;99.90;;;;;;6097010;23;20769;-70
2021/09/11 10:45:44;;;;;;;8.30;7.50;;;24.40;99.90;;;;;;6096308;23;20719;-67
2021/09/11 10:48:36;;;;;;;10.73;9.00;;;24.20;99.90;;;;;;6096546;23;20445;-68
2021/09/11 10:51:39;;;;;;;11.03;8.63;;;23.90;99.90;;;;;;6096595;23;20517;-69
2021/09/11 10:54:13;;;;;;;11.43;9.10;;;23.50;99.90;;;;;;6096828;23;20979;-69
2021/09/11 10:56:42;;;;;;;11.93;9.90;;;23.40;99.90;;;;;;6097019;23;20398;-67
2021/09/11 10:59:36;;;;;;;16.83;11.73;;;23.20;99.90;;;;;;6096904;23;20698;-67
2021/09/11 11:02:12;;;;;;;13.90;12.50;;;23.00;99.90;;;;;;6095388;23;20437;-68
2021/09/11 11:04:57;;;;;;;13.60;12.40;;;22.80;99.90;;;;;;6096785;23;20389;-68
2021/09/11 11:07:27;;;;;;;13.77;12.47;;;22.60;99.90;;;;;;6096992;23;20402;-72
2021/09/11 11:09:55;;;;;;;13.53;12.23;;;22.40;99.90;;;;;;6096838;23;20403;-71
2021/09/11 11:12:24;;;;;;;14.23;12.63;;;22.30;99.90;;;;;;6096046;23;20433;-73
2021/09/11 11:14:55;;;;;;;15.10;12.80;;;22.30;99.90;;;;;;6097224;23;20399;-73
2021/09/11 11:17:23;;;;;;;14.90;13.23;;;22.30;99.90;;;;;;6097183;23;20858;-75
2021/09/11 11:19:53;;;;;;;15.13;13.67;;;22.50;99.90;;;;;;6095413;23;20497;-68
2021/09/11 11:22:27;;;;;;;14.50;12.83;;;22.60;99.90;;;;;;6095549;23;20430;-69
2021/09/11 11:24:54;;;;;;;19.50;14.50;;;22.90;99.90;;;;;;6071016;23;20717;-70
2021/09/11 11:27:24;;;;;;;16.07;13.43;;;22.80;99.90;;;;;;6096003;23;20413;-69
2021/09/11 11:29:53;;;;;;;14.40;12.93;;;22.70;99.90;;;;;;6094887;23;20854;-70
2021/09/11 11:32:21;;;;;;;17.03;14.27;;;22.90;99.90;;;;;;6069698;23;20443;-69
2021/09/11 11:34:55;;;;;;;16.83;15.13;;;22.80;99.90;;;;;;6067969;23;20400;-70
2021/09/11 11:37:23;;;;;;;14.23;12.97;;;22.50;99.90;;;;;;6067612;23;20399;-69
2021/09/11 11:39:51;;;;;;;13.70;12.30;;;22.50;99.90;;;;;;6065315;23;20402;-69
2021/09/11 11:42:23;;;;;;;15.57;14.03;;;22.60;99.90;;;;;;6067460;23;20465;-69
2021/09/11 11:44:52;;;;;;;17.30;15.70;;;22.50;99.90;;;;;;6067668;23;20407;-68
2021/09/11 11:47:53;;;;;;;15.07;13.57;;;22.50;99.90;;;;;;6067247;23;20395;-70
2021/09/11 11:50:26;;;;;;;16.73;14.30;;;22.50;99.90;;;;;;6067514;23;20450;-70
2021/09/11 11:52:55;;;;;;;16.70;14.50;;;22.70;99.90;;;;;;6066949;23;20538;-68
2021/09/11 11:55:24;;;;;;;17.20;15.00;;;22.80;99.90;;;;;;6067594;23;20411;-69
2021/09/11 11:57:52;;;;;;;18.10;14.83;;;22.90;99.90;;;;;;6066686;23;20483;-70
2021/09/11 12:00:21;;;;;;;17.13;15.33;;;22.90;99.90;;;;;;6068098;23;20719;-70
2021/09/11 12:02:49;;;;;;;16.97;15.17;;;22.70;99.90;;;;;;6067681;23;20431;-70
2021/09/11 12:05:26;;;;;;;16.77;14.63;;;22.40;99.90;;;;;;6066891;23;20410;-71
2021/09/11 12:07:58;;;;;;;16.40;14.73;;;22.20;99.90;;;;;;6066410;23;20487;-70
2021/09/11 12:10:27;;;;;;;19.77;16.20;;;22.10;99.90;;;;;;6066474;23;20432;-70
2021/09/11 12:12:57;;;;;;;19.13;17.33;;;21.70;99.90;;;;;;6067058;23;20438;-70
2021/09/11 12:15:26;;;;;;;17.80;16.00;;;21.70;99.90;;;;;;6067709;23;20386;-71
2021/09/11 12:18:01;;;;;;;20.50;16.17;;;21.80;99.90;;;;;;6066372;23;20477;-72
2021/09/11 12:20:31;;;;;;;19.50;16.07;;;21.80;99.90;;;;;;6067041;23;20478;-71
2021/09/11 12:23:13;;;;;;;17.97;15.77;;;21.70;99.90;;;;;;6066987;23;20464;-70
2021/09/11 12:25:59;;;;;;;22.63;16.03;;;21.70;99.90;;;;;;6068068;23;20398;-72
2021/09/11 12:28:46;;;;;;;21.20;16.10;;;21.80;99.90;;;;;;6066505;23;20482;-72
2021/09/11 12:31:26;;;;;;;19.40;15.37;;;22.00;99.90;;;;;;6066370;23;20537;-69
2021/09/11 12:33:56;;;;;;;15.70;13.77;;;21.80;99.90;;;;;;6067644;23;20869;-69
2021/09/11 12:36:31;;;;;;;19.30;17.37;;;22.10;99.90;;;;;;6066211;23;20509;-71
2021/09/11 12:39:01;;;;;;;18.03;15.93;;;22.40;99.90;;;;;;6066399;23;20421;-70
2021/09/11 12:41:28;;;;;;;16.30;14.47;;;22.40;99.90;;;;;;6066316;23;20938;-69
2021/09/11 12:43:55;;;;;;;17.90;14.53;;;22.30;99.90;;;;;;6066362;23;20403;-70
2021/09/11 12:46:34;;;;;;;15.70;14.20;;;22.50;99.90;;;;;;6067604;23;20404;-69